Riverton, Wyoming
Current Conditions -  °F | °C
As of 10:53 AM on Saturday 25 Oct 2014 (Local Time) from KRIW Reporting Station
Clear Clear  
Wind Chill: 53°   Ceiling: Unl
Heat Index: 53°   Visibility: 10mi
Dew Point: 27°   Wind: 3mph
Humidity: 37%   Direction: 100°E
Pressure: 30.15"   Gusts: NA
Location:  43.02°N, 108.38°W
Report Text: KRIW 251653Z AUTO 10003KT 10SM CLR 12/M03 A3015 RMK AO2 SLP177 T01171028
Loading
Personal Weather Stations






























Interactive Weather Map
Tropical Storm Tracking
New forecast layout! Learn more

10-Day Weather Forecast

Advertisements
Track Severe Weather on mobile